createdAt,value
2022-12-14T00:10:18.523Z,-3.75
2022-12-14T00:11:19.528Z,-3.72
2022-12-14T00:12:19.487Z,-3.75
2022-12-14T00:13:19.473Z,-3.72
2022-12-14T00:14:19.462Z,-3.75
2022-12-14T00:15:19.452Z,-3.76
2022-12-14T00:16:19.540Z,-3.78
2022-12-14T00:17:19.460Z,-3.81
2022-12-14T00:18:22.431Z,-3.78
2022-12-14T00:19:19.434Z,-3.78
2022-12-14T00:20:19.397Z,-3.78
2022-12-14T00:21:19.392Z,-3.76
2022-12-14T00:22:19.371Z,-3.75
2022-12-14T00:23:19.401Z,-3.80
2022-12-14T00:24:19.321Z,-3.78
2022-12-14T00:25:19.328Z,-3.76
2022-12-14T00:26:19.327Z,-3.76
2022-12-14T00:27:19.310Z,-3.80
2022-12-14T00:28:19.277Z,-3.81
2022-12-14T00:29:19.263Z,-3.76
2022-12-14T00:30:19.292Z,-3.78
2022-12-14T00:31:19.301Z,-3.78
2022-12-14T00:32:19.226Z,-3.81
2022-12-14T00:33:19.220Z,-3.81
2022-12-14T00:34:19.213Z,-3.80
2022-12-14T00:35:19.206Z,-3.83
2022-12-14T00:36:19.202Z,-3.80
2022-12-14T00:37:19.170Z,-3.80
2022-12-14T00:38:19.162Z,-3.81
2022-12-14T00:39:19.152Z,-3.81
2022-12-14T00:40:19.148Z,-3.80
2022-12-14T00:41:19.148Z,-3.80
2022-12-14T00:42:19.097Z,-3.78
2022-12-14T00:43:19.128Z,-3.80
2022-12-14T00:44:19.081Z,-3.76
2022-12-14T00:45:19.086Z,-3.76
2022-12-14T00:46:19.100Z,-3.76
2022-12-14T00:47:19.049Z,-3.78
2022-12-14T00:48:19.024Z,-3.76
2022-12-14T00:49:19.034Z,-3.80
2022-12-14T00:50:18.992Z,-3.75
2022-12-14T00:51:18.986Z,-3.78
2022-12-14T00:52:18.982Z,-3.80
2022-12-14T00:53:18.963Z,-3.80
2022-12-14T00:54:18.949Z,-3.75
2022-12-14T00:55:18.937Z,-3.75
2022-12-14T00:56:18.909Z,-3.78
2022-12-14T00:57:18.915Z,-3.78
2022-12-14T00:58:17.939Z,-3.76
2022-12-14T01:04:39.478Z,-3.71
2022-12-14T01:05:40.462Z,-3.71
2022-12-14T01:06:40.463Z,-3.71
2022-12-14T01:07:40.438Z,-3.72
2022-12-14T01:08:40.421Z,-3.75
2022-12-14T01:09:40.422Z,-3.72
2022-12-14T01:10:40.558Z,-3.71
2022-12-14T01:11:40.387Z,-3.72
2022-12-14T01:12:40.399Z,-3.75
2022-12-14T01:13:40.361Z,-3.72
2022-12-14T01:14:40.338Z,-3.75
2022-12-14T01:15:40.424Z,-3.75
2022-12-14T01:16:40.328Z,-3.72
2022-12-14T01:17:40.301Z,-3.71
2022-12-14T01:18:40.290Z,-3.75
2022-12-14T01:19:40.289Z,-3.75
2022-12-14T01:20:40.271Z,-3.75
2022-12-14T01:21:40.260Z,-3.75
2022-12-14T01:22:40.246Z,-3.75
2022-12-14T01:23:40.231Z,-3.76
2022-12-14T01:24:40.205Z,-3.78
2022-12-14T01:25:40.205Z,-3.78
2022-12-14T01:26:40.194Z,-3.76
2022-12-14T01:27:40.221Z,-3.75
2022-12-14T01:28:40.156Z,-3.70
2022-12-14T01:29:40.153Z,-3.68
2022-12-14T01:30:40.125Z,-3.70
2022-12-14T01:31:40.214Z,-3.71
2022-12-14T01:32:40.121Z,-3.71
2022-12-14T01:33:40.118Z,-3.72
2022-12-14T01:34:40.079Z,-3.71
2022-12-14T01:35:40.060Z,-3.71
2022-12-14T01:36:40.048Z,-3.72
2022-12-14T01:37:40.061Z,-3.72
2022-12-14T01:38:40.016Z,-3.72
2022-12-14T01:39:40.055Z,-3.71
2022-12-14T01:40:39.991Z,-3.75
2022-12-14T01:41:40.011Z,-3.72
2022-12-14T01:42:39.978Z,-3.71
2022-12-14T01:43:39.986Z,-3.75
2022-12-14T01:44:39.945Z,-3.78
2022-12-14T01:45:39.927Z,-3.76
2022-12-14T01:46:39.962Z,-3.76
2022-12-14T01:47:39.921Z,-3.72
2022-12-14T01:48:39.911Z,-3.75
2022-12-14T01:49:39.879Z,-3.72
2022-12-14T01:50:39.858Z,-3.72
2022-12-14T01:51:39.860Z,-3.72
2022-12-14T01:52:39.845Z,-3.72
2022-12-14T01:53:39.836Z,-3.76
2022-12-14T01:54:39.795Z,-3.78
2022-12-14T01:55:39.819Z,-3.76
2022-12-14T01:56:39.802Z,-3.78
2022-12-14T01:57:39.801Z,-3.80
2022-12-14T01:58:39.804Z,-3.80
2022-12-14T01:59:39.764Z,-3.80
2022-12-14T02:00:39.720Z,-3.80
2022-12-14T02:01:39.905Z,-3.80
2022-12-14T02:02:39.847Z,-3.83
2022-12-14T02:03:39.732Z,-3.83
2022-12-14T02:04:39.686Z,-3.84
2022-12-14T02:05:39.755Z,-3.84
2022-12-14T02:06:39.641Z,-3.83
2022-12-14T02:07:39.642Z,-3.86
2022-12-14T02:08:39.617Z,-3.83
2022-12-14T02:09:39.608Z,-3.87
2022-12-14T02:10:39.611Z,-3.87
2022-12-14T02:11:39.586Z,-3.83
2022-12-14T02:12:39.603Z,-3.81
2022-12-14T02:13:39.561Z,-3.81
2022-12-14T02:14:39.545Z,-3.83
2022-12-14T02:15:39.531Z,-3.80
2022-12-14T02:16:39.611Z,-3.76
2022-12-14T02:17:39.500Z,-3.76
2022-12-14T02:18:39.493Z,-3.72
2022-12-14T02:19:39.483Z,-3.72
2022-12-14T02:20:39.461Z,-3.75
2022-12-14T02:21:39.452Z,-3.72
2022-12-14T02:22:39.467Z,-3.75
2022-12-14T02:23:39.444Z,-3.76
2022-12-14T02:24:39.425Z,-3.75
2022-12-14T02:25:39.427Z,-3.72
2022-12-14T02:26:39.409Z,-3.71
2022-12-14T02:27:39.418Z,-3.72
2022-12-14T02:28:39.361Z,-3.72
2022-12-14T02:29:39.467Z,-3.70
2022-12-14T02:30:39.337Z,-3.70
2022-12-14T02:31:39.370Z,-3.71
2022-12-14T02:32:39.299Z,-3.70
2022-12-14T02:33:39.393Z,-3.71
2022-12-14T02:34:39.284Z,-3.72
2022-12-14T02:35:39.285Z,-3.71
2022-12-14T02:36:39.283Z,-3.75
2022-12-14T02:37:39.303Z,-3.71
2022-12-14T02:38:39.343Z,-3.71
2022-12-14T02:39:39.221Z,-3.70
2022-12-14T02:40:39.201Z,-3.72
2022-12-14T02:41:39.257Z,-3.71
2022-12-14T02:42:39.196Z,-3.71
2022-12-14T02:43:39.250Z,-3.72
2022-12-14T02:44:39.310Z,-3.72
2022-12-14T02:45:39.137Z,-3.72
2022-12-14T02:46:39.209Z,-3.72
2022-12-14T02:47:39.166Z,-3.75
2022-12-14T02:48:39.177Z,-3.75
2022-12-14T02:49:39.110Z,-3.75
2022-12-14T02:50:39.066Z,-3.75
2022-12-14T02:51:39.078Z,-3.72
2022-12-14T04:42:16.640Z,-4.25
2022-12-14T04:43:17.628Z,-4.23
2022-12-14T04:44:17.628Z,-4.20
2022-12-14T04:45:17.731Z,-4.23
2022-12-14T04:46:17.988Z,-4.25
2022-12-14T04:47:17.587Z,-4.22
2022-12-14T04:48:17.588Z,-4.25
2022-12-14T04:49:17.777Z,-4.28
2022-12-14T04:50:17.558Z,-4.29
2022-12-14T04:51:17.529Z,-4.26
2022-12-14T04:52:17.682Z,-4.29
2022-12-14T04:53:17.517Z,-4.29
2022-12-14T04:54:17.532Z,-4.33
2022-12-14T04:55:17.512Z,-4.30
2022-12-14T04:56:17.479Z,-4.33
2022-12-14T04:57:19.293Z,-4.33
2022-12-14T04:58:17.428Z,-4.33
2022-12-14T04:59:16.442Z,-4.33
2022-12-14T05:00:17.504Z,-4.36
2022-12-14T05:01:17.511Z,-4.33
2022-12-14T05:02:17.535Z,-4.36
2022-12-14T05:03:17.382Z,-4.38
2022-12-14T05:04:17.372Z,-4.33
2022-12-14T05:05:17.691Z,-4.36
2022-12-14T05:06:17.791Z,-4.37
2022-12-14T05:07:17.326Z,-4.37
2022-12-14T05:08:17.300Z,-4.40
2022-12-14T05:09:17.302Z,-4.40
2022-12-14T05:10:17.281Z,-4.43
2022-12-14T05:11:50.216Z,-4.43
2022-12-14T05:12:17.257Z,-4.40
2022-12-14T05:13:17.428Z,-4.40
2022-12-14T05:14:17.229Z,-4.44
2022-12-14T05:15:17.222Z,-4.46
2022-12-14T05:16:17.269Z,-4.51
2022-12-14T05:17:17.253Z,-4.47
2022-12-14T05:18:17.165Z,-4.50
2022-12-14T05:19:17.173Z,-4.50
2022-12-14T05:20:17.308Z,-4.48
2022-12-14T05:21:17.195Z,-4.50
2022-12-14T05:22:17.135Z,-4.51
2022-12-14T05:23:17.227Z,-4.51
2022-12-14T05:24:17.216Z,-4.51
2022-12-14T05:25:17.145Z,-4.51
2022-12-14T05:26:17.140Z,-4.57
2022-12-14T05:27:17.058Z,-4.57
2022-12-14T05:28:17.062Z,-4.57
2022-12-14T05:29:17.036Z,-4.55
2022-12-14T05:30:17.195Z,-4.55
2022-12-14T05:31:17.066Z,-4.61
2022-12-14T05:32:16.983Z,-4.59
2022-12-14T05:33:16.990Z,-4.64
2022-12-14T05:34:17.137Z,-4.59
2022-12-14T05:35:17.019Z,-4.62
2022-12-14T05:36:16.942Z,-4.59
2022-12-14T05:37:18.515Z,-4.58
2022-12-14T05:38:16.911Z,-4.57
2022-12-14T05:39:16.906Z,-4.57
2022-12-14T05:40:16.901Z,-4.58
2022-12-14T05:41:16.985Z,-4.59
2022-12-14T05:42:16.920Z,-4.58
2022-12-14T05:43:16.975Z,-4.61
2022-12-14T05:44:16.895Z,-4.64
2022-12-14T05:45:16.830Z,-4.61
2022-12-14T05:46:17.003Z,-4.59
2022-12-14T05:47:16.818Z,-4.57
2022-12-14T05:48:16.785Z,-4.54
2022-12-14T05:49:16.773Z,-4.51
2022-12-14T05:50:16.778Z,-4.50
2022-12-14T05:51:16.776Z,-4.47
2022-12-14T05:52:16.837Z,-4.50
2022-12-14T05:53:16.741Z,-4.46
2022-12-14T05:54:16.764Z,-4.46
2022-12-14T05:55:16.720Z,-4.48
2022-12-14T05:56:16.675Z,-4.48
2022-12-14T05:57:16.670Z,-4.43
2022-12-14T05:58:16.684Z,-4.46
2022-12-14T05:59:16.666Z,-4.43
2022-12-14T06:00:16.636Z,-4.41
2022-12-14T06:01:19.310Z,-4.40
2022-12-14T06:02:16.726Z,-4.43
2022-12-14T06:03:16.605Z,-4.44
2022-12-14T06:04:16.631Z,-4.43
2022-12-14T06:05:16.560Z,-4.47
2022-12-14T06:06:16.565Z,-4.47
2022-12-14T06:07:16.636Z,-4.46
2022-12-14T06:08:16.551Z,-4.43
2022-12-14T06:09:16.512Z,-4.43
2022-12-14T06:10:16.492Z,-4.38
2022-12-14T06:11:16.628Z,-4.33
2022-12-14T06:12:16.463Z,-4.32
2022-12-14T06:13:16.506Z,-4.30
2022-12-14T06:14:16.446Z,-4.33
2022-12-14T06:15:16.437Z,-4.32
2022-12-14T06:16:16.454Z,-4.29
2022-12-14T06:17:16.414Z,-4.28
2022-12-14T06:18:16.396Z,-4.25
2022-12-14T06:19:16.384Z,-4.25
2022-12-14T06:20:52.620Z,-4.22
2022-12-14T06:21:16.365Z,-4.20
2022-12-14T06:22:16.345Z,-4.26
2022-12-14T06:23:16.336Z,-4.25
2022-12-14T06:24:18.406Z,-4.26
2022-12-14T06:25:53.582Z,-4.29
2022-12-14T06:26:16.294Z,-4.30
2022-12-14T06:27:16.283Z,-4.30
2022-12-14T06:28:16.259Z,-4.29
2022-12-14T06:29:16.254Z,-4.32
2022-12-14T06:30:16.232Z,-4.33
2022-12-14T06:51:23.536Z,-4.37
2022-12-14T07:08:18.782Z,-4.44
2022-12-14T07:20:26.711Z,-4.32
2022-12-14T07:21:11.907Z,-4.33
2022-12-14T07:22:11.909Z,-4.33
2022-12-14T07:38:47.929Z,-4.19
2022-12-14T07:39:22.420Z,-4.09
2022-12-14T08:39:04.346Z,-3.70
2022-12-14T08:40:05.338Z,-3.67
2022-12-14T08:41:05.318Z,-3.68
2022-12-14T08:42:05.508Z,-3.68
2022-12-14T08:43:05.315Z,-3.67
2022-12-14T08:44:05.286Z,-3.67
2022-12-14T08:45:05.260Z,-3.65
2022-12-14T08:46:05.250Z,-3.64
2022-12-14T08:47:05.376Z,-3.62
2022-12-14T08:50:55.548Z,-3.65
2022-12-14T08:51:25.230Z,-3.67
2022-12-14T08:52:25.216Z,-3.70
2022-12-14T08:53:25.205Z,-3.72
2022-12-14T08:54:25.220Z,-3.71
2022-12-14T08:55:28.404Z,-3.67
2022-12-14T08:56:25.213Z,-3.64
2022-12-14T08:57:25.167Z,-3.68
2022-12-14T08:58:25.181Z,-3.67
2022-12-14T08:59:59.696Z,-3.70
2022-12-14T09:00:27.318Z,-3.72
2022-12-14T09:01:32.190Z,-3.71
2022-12-14T09:02:25.205Z,-3.71
2022-12-14T09:03:25.069Z,-3.71
2022-12-14T09:04:25.271Z,-3.72
2022-12-14T09:05:25.070Z,-3.76
2022-12-14T09:06:25.026Z,-3.78
2022-12-14T09:07:25.041Z,-3.81
2022-12-14T09:08:27.187Z,-3.80
2022-12-14T09:09:25.110Z,-3.83
2022-12-14T09:10:45.995Z,-3.84
2022-12-14T09:11:24.963Z,-3.86
2022-12-14T09:12:24.961Z,-3.86
2022-12-14T09:13:24.945Z,-3.87
2022-12-14T09:14:24.932Z,-3.91
2022-12-14T09:15:24.923Z,-3.93
2022-12-14T09:26:12.079Z,-4.11
2022-12-14T09:27:12.984Z,-4.12
2022-12-14T09:28:12.940Z,-4.15
2022-12-14T09:29:12.938Z,-4.11
2022-12-14T09:30:12.912Z,-4.14
2022-12-14T09:31:12.929Z,-4.15
2022-12-14T09:32:12.929Z,-4.14
2022-12-14T09:33:12.905Z,-4.12
2022-12-14T09:34:12.905Z,-4.14
2022-12-14T09:35:12.840Z,-4.09
2022-12-14T09:36:12.883Z,-4.08
2022-12-14T09:37:11.829Z,-4.07
2022-12-14T09:38:12.822Z,-4.07
2022-12-14T09:39:12.806Z,-4.05
2022-12-14T09:40:12.786Z,-4.05
2022-12-14T09:41:12.776Z,-4.05
2022-12-14T09:42:12.760Z,-4.04
2022-12-14T09:43:12.746Z,-4.05
2022-12-14T09:44:17.887Z,-4.04
2022-12-14T09:45:12.731Z,-4.04
2022-12-14T09:46:12.992Z,-3.99
2022-12-14T09:47:12.712Z,-4.01
2022-12-14T09:48:12.861Z,-3.96
2022-12-14T09:49:12.877Z,-3.94
2022-12-14T09:50:12.929Z,-3.90
2022-12-14T09:51:12.698Z,-3.86
2022-12-14T09:52:12.802Z,-3.84
2022-12-14T09:53:12.644Z,-3.80
2022-12-14T09:54:12.757Z,-3.75
2022-12-14T09:55:12.751Z,-3.67
2022-12-14T09:56:12.572Z,-3.62
2022-12-14T09:57:12.560Z,-3.62
2022-12-14T09:58:12.598Z,-3.60
2022-12-14T09:59:12.572Z,-3.56
2022-12-14T10:00:12.540Z,-3.51
2022-12-14T10:01:12.598Z,-3.50
2022-12-14T10:02:30.396Z,-3.49
2022-12-14T10:03:12.801Z,-3.47
2022-12-14T10:04:12.711Z,-3.46
2022-12-14T10:05:12.465Z,-3.39
2022-12-14T10:06:12.444Z,-3.39
2022-12-14T10:07:12.433Z,-3.41
2022-12-14T10:08:12.475Z,-3.41
2022-12-14T10:09:12.477Z,-3.43
2022-12-14T10:10:13.237Z,-3.39
2022-12-14T10:11:12.376Z,-3.41
2022-12-14T10:12:12.382Z,-3.39
2022-12-14T10:13:12.383Z,-3.38
2022-12-14T10:14:12.339Z,-3.38
2022-12-14T10:15:12.387Z,-3.33
2022-12-14T10:16:12.398Z,-3.28
2022-12-14T10:17:35.417Z,-3.25
2022-12-14T10:18:58.783Z,-3.20
2022-12-14T10:19:12.485Z,-3.14
2022-12-14T10:20:12.268Z,-3.11
2022-12-14T10:21:12.236Z,-3.08
2022-12-14T10:22:12.298Z,-3.05
2022-12-14T10:23:42.262Z,-2.99
2022-12-14T10:24:12.221Z,-2.97
2022-12-14T10:25:12.229Z,-2.94
2022-12-14T10:26:12.177Z,-2.92
2022-12-14T10:27:12.175Z,-2.87
2022-12-14T10:29:56.430Z,-2.81
2022-12-14T10:30:57.382Z,-2.81
2022-12-14T10:31:57.450Z,-2.79
2022-12-14T10:32:57.383Z,-2.76
2022-12-14T10:34:12.022Z,-2.75
2022-12-14T10:38:50.140Z,-2.63
2022-12-14T10:39:53.365Z,-2.61
2022-12-14T10:40:50.274Z,-2.58
2022-12-14T10:41:50.329Z,-2.58
2022-12-14T10:42:50.146Z,-2.54
2022-12-14T10:43:50.004Z,-2.54
2022-12-14T10:44:56.085Z,-2.54
2022-12-14T10:45:50.081Z,-2.47
2022-12-14T10:46:51.124Z,-2.42
2022-12-14T10:47:49.996Z,-2.40
2022-12-14T10:48:49.986Z,-2.39
2022-12-14T10:49:49.930Z,-2.36
2022-12-14T10:50:50.237Z,-2.33
2022-12-14T10:51:51.250Z,-2.33
2022-12-14T10:52:49.897Z,-2.26
2022-12-14T10:53:49.961Z,-2.26
2022-12-14T10:54:50.001Z,-2.20
2022-12-14T10:55:49.849Z,-2.17
2022-12-14T10:56:50.356Z,-2.16
2022-12-14T10:57:49.827Z,-2.10
2022-12-14T10:58:49.824Z,-2.05
2022-12-14T11:00:05.590Z,-2.08
2022-12-14T11:00:49.807Z,-2.06
2022-12-14T11:01:49.892Z,-2.03
2022-12-14T11:02:50.215Z,-2.02
2022-12-14T11:03:49.769Z,-2.00
2022-12-14T11:04:49.709Z,-1.96
2022-12-14T11:05:49.726Z,-1.96
2022-12-14T11:06:49.776Z,-1.93
2022-12-14T11:07:49.754Z,-1.88
2022-12-14T11:08:49.700Z,-1.82
2022-12-14T11:09:49.657Z,-1.78
2022-12-14T11:10:49.646Z,-1.77
2022-12-14T11:11:49.695Z,-1.69
2022-12-14T11:12:49.656Z,-1.63
2022-12-14T11:13:49.665Z,-1.57
2022-12-14T11:14:49.603Z,-1.49
2022-12-14T11:15:49.589Z,-1.46
2022-12-14T11:16:49.737Z,-1.41
2022-12-14T11:17:49.713Z,-1.36
2022-12-14T11:18:49.611Z,-1.31
2022-12-14T11:19:49.554Z,-1.24
2022-12-14T11:20:49.530Z,-1.23
2022-12-14T11:21:49.696Z,-1.18
2022-12-14T11:22:49.541Z,-1.23
2022-12-14T11:23:49.525Z,-1.23
2022-12-14T11:24:49.468Z,-1.15
2022-12-14T11:25:49.453Z,-1.12
2022-12-14T11:26:49.523Z,-1.12
2022-12-14T11:27:50.036Z,-1.20
2022-12-14T11:28:49.882Z,-1.12
2022-12-14T11:29:49.405Z,-1.10
2022-12-14T11:30:49.411Z,-1.06
2022-12-14T11:31:49.435Z,-1.02
2022-12-14T11:32:49.357Z,-0.99
2022-12-14T11:33:50.209Z,-0.91
2022-12-14T11:34:49.368Z,-0.87
2022-12-14T11:35:49.368Z,-0.91
2022-12-14T11:36:49.370Z,-0.97
2022-12-14T11:37:49.323Z,-0.95
2022-12-14T11:38:49.289Z,-0.92
2022-12-14T11:39:49.283Z,-0.89
2022-12-14T11:40:49.258Z,-0.84
2022-12-14T11:41:49.240Z,-0.83
2022-12-14T11:42:49.231Z,-0.80
2022-12-14T11:43:49.218Z,-0.78
2022-12-14T11:44:49.385Z,-0.77
2022-12-14T11:45:49.544Z,-0.70
2022-12-14T11:46:49.277Z,-0.66
2022-12-14T11:47:49.164Z,-0.62
2022-12-14T11:48:49.194Z,-0.59
2022-12-14T11:49:49.146Z,-0.51
2022-12-14T11:50:49.166Z,-0.50
2022-12-14T11:51:49.236Z,-0.41
2022-12-14T11:52:49.160Z,-0.41
2022-12-14T11:53:49.100Z,-0.36
2022-12-14T11:54:49.626Z,-0.29
2022-12-14T11:55:49.065Z,-0.29
2022-12-14T11:56:49.132Z,-0.24
2022-12-14T11:57:49.054Z,-0.18
2022-12-14T11:58:49.013Z,-0.19
2022-12-14T11:59:49.036Z,-0.19
2022-12-14T12:00:48.990Z,-0.16
2022-12-14T12:01:49.112Z,-0.16
2022-12-14T12:02:49.129Z,-0.22
2022-12-14T12:03:49.031Z,-0.24
2022-12-14T12:04:48.992Z,-0.22
2022-12-14T12:05:48.925Z,-0.30
2022-12-14T12:06:48.933Z,-0.34
2022-12-14T12:07:49.168Z,-0.33
2022-12-14T12:08:48.899Z,-0.31
2022-12-14T12:09:48.932Z,-0.31
2022-12-14T12:10:49.632Z,-0.27
2022-12-14T12:11:49.040Z,-0.27
2022-12-14T12:12:54.055Z,-0.23
2022-12-14T12:13:48.833Z,-0.23
2022-12-14T12:14:48.867Z,-0.23
2022-12-14T12:15:49.836Z,-0.22
2022-12-14T12:16:48.781Z,-0.18
2022-12-14T12:17:48.772Z,-0.22
2022-12-14T12:18:48.820Z,-0.23
2022-12-14T12:19:48.770Z,-0.24
2022-12-14T12:20:48.744Z,-0.30
2022-12-14T12:21:48.727Z,-0.36
2022-12-14T12:22:48.783Z,-0.36
2022-12-14T12:23:48.699Z,-0.33
2022-12-14T12:25:08.689Z,-0.29
2022-12-14T12:25:48.683Z,-0.26
2022-12-14T12:26:50.069Z,-0.23
2022-12-14T12:27:48.726Z,-0.23
2022-12-14T12:28:48.706Z,-0.24
2022-12-14T12:29:48.634Z,-0.24
2022-12-14T12:30:48.802Z,-0.22
2022-12-14T12:31:48.593Z,-0.16
2022-12-14T12:32:49.948Z,-0.13
2022-12-14T12:33:48.582Z,-0.09
2022-12-14T12:34:48.548Z,0.00
2022-12-14T12:35:48.564Z,-0.05
2022-12-14T12:37:17.484Z,-0.04
2022-12-14T12:37:48.532Z,-0.05
2022-12-14T12:38:49.740Z,-0.01
2022-12-14T12:39:48.497Z,-0.05
2022-12-14T12:40:48.522Z,-0.01
2022-12-14T12:41:48.491Z,-0.01
2022-12-14T12:42:48.447Z,-0.01
2022-12-14T12:43:49.994Z,0.09
2022-12-14T12:44:49.784Z,0.07
2022-12-14T12:45:48.421Z,0.09
2022-12-14T12:47:22.385Z,0.13
2022-12-14T12:47:48.546Z,0.13
2022-12-14T12:48:48.375Z,0.18
2022-12-14T12:49:48.385Z,0.21
2022-12-14T12:50:49.809Z,0.24
2022-12-14T12:51:48.407Z,0.23
2022-12-14T12:52:48.347Z,0.13
2022-12-14T12:53:48.315Z,0.07
2022-12-14T12:54:48.323Z,0.05
2022-12-14T12:55:48.334Z,0.06
2022-12-14T12:56:48.488Z,0.07
2022-12-14T12:57:48.248Z,0.15
2022-12-14T12:58:52.685Z,0.15
2022-12-14T12:59:48.246Z,0.16
2022-12-14T13:00:48.251Z,0.16
2022-12-14T13:01:48.290Z,0.16
2022-12-14T13:02:50.271Z,0.20
2022-12-14T13:03:48.283Z,0.18
2022-12-14T13:04:52.412Z,0.18
2022-12-14T13:05:49.008Z,0.12
2022-12-14T13:06:48.197Z,0.13
2022-12-14T13:07:48.175Z,0.07
2022-12-14T13:08:49.946Z,0.05
2022-12-14T13:09:48.226Z,0.05
2022-12-14T13:11:17.309Z,0.02
2022-12-14T13:11:48.218Z,0.02
2022-12-14T13:12:48.113Z,0.00
2022-12-14T13:13:48.061Z,-0.04
2022-12-14T13:14:49.599Z,-0.01
2022-12-14T13:15:48.138Z,-0.04
2022-12-14T13:16:48.011Z,0.00
2022-12-14T13:17:49.466Z,0.03
2022-12-14T13:19:51.005Z,0.07
2022-12-14T13:20:48.025Z,0.06
2022-12-14T13:21:50.069Z,0.05
2022-12-14T13:22:48.142Z,0.09
2022-12-14T13:23:47.946Z,0.09
2022-12-14T13:24:47.947Z,0.07
2022-12-14T13:25:47.983Z,0.07
2022-12-14T13:26:57.710Z,0.10
2022-12-14T13:27:47.881Z,0.09
2022-12-14T13:28:47.957Z,0.12
2022-12-14T13:29:47.828Z,0.10
2022-12-14T13:30:47.902Z,0.10
2022-12-14T13:31:47.843Z,0.10
2022-12-14T13:32:47.786Z,0.10
2022-12-14T13:33:51.122Z,0.10
2022-12-14T13:34:47.776Z,0.10
2022-12-14T13:35:47.840Z,0.09
2022-12-14T13:36:47.827Z,0.10
2022-12-14T13:37:47.809Z,0.06
2022-12-14T13:38:47.757Z,0.03
2022-12-14T13:39:50.758Z,0.02
2022-12-14T13:40:47.729Z,0.02
2022-12-14T13:41:47.803Z,-0.01
2022-12-14T13:42:51.933Z,-0.04
2022-12-14T13:43:47.720Z,-0.05
2022-12-14T13:44:47.653Z,-0.01
2022-12-14T13:45:49.699Z,-0.06
2022-12-14T13:46:47.653Z,-0.08
2022-12-14T13:47:47.804Z,-0.09
2022-12-14T13:48:47.581Z,-0.09
2022-12-14T13:50:04.942Z,-0.11
2022-12-14T13:50:54.368Z,-0.09
2022-12-14T13:51:47.600Z,-0.09
2022-12-14T13:52:47.630Z,-0.15
2022-12-14T13:53:48.401Z,-0.15
2022-12-14T13:54:47.612Z,-0.13
2022-12-14T13:55:47.552Z,-0.12
2022-12-14T13:56:47.481Z,-0.11
2022-12-14T13:57:47.486Z,-0.11
2022-12-14T13:58:47.557Z,-0.11
2022-12-14T13:59:47.443Z,-0.15
2022-12-14T14:00:47.485Z,-0.16
2022-12-14T14:01:47.664Z,-0.15
2022-12-14T14:02:47.518Z,-0.16
2022-12-14T14:03:47.574Z,-0.15
2022-12-14T14:04:47.579Z,-0.18
2022-12-14T14:05:47.384Z,-0.18
2022-12-14T14:06:47.379Z,-0.16
2022-12-14T14:07:47.340Z,-0.19
2022-12-14T14:08:47.821Z,-0.23
2022-12-14T14:09:47.313Z,-0.24
2022-12-14T14:10:47.415Z,-0.26
2022-12-14T14:11:48.298Z,-0.29
2022-12-14T14:12:47.280Z,-0.30
2022-12-14T14:13:49.750Z,-0.30
2022-12-14T14:14:47.260Z,-0.30
2022-12-14T14:16:18.899Z,-0.27
2022-12-14T14:16:47.272Z,-0.26
2022-12-14T14:17:47.237Z,-0.24
2022-12-14T14:18:47.206Z,-0.23
2022-12-14T14:19:49.462Z,-0.26
2022-12-14T14:20:47.166Z,-0.26
2022-12-14T14:22:06.155Z,-0.29
2022-12-14T14:22:47.132Z,-0.30
2022-12-14T14:23:47.126Z,-0.33
2022-12-14T14:24:47.121Z,-0.33
2022-12-14T14:25:48.664Z,-0.33
2022-12-14T14:26:47.103Z,-0.36
2022-12-14T14:27:47.092Z,-0.33
2022-12-14T14:28:49.593Z,-0.34
2022-12-14T14:29:47.049Z,-0.36
2022-12-14T14:30:47.147Z,-0.42
2022-12-14T14:31:47.362Z,-0.39
2022-12-14T14:32:47.085Z,-0.44
2022-12-14T14:33:48.353Z,-0.44
2022-12-14T14:34:47.000Z,-0.47
2022-12-14T14:35:49.752Z,-0.50
2022-12-14T14:36:46.982Z,-0.52
2022-12-14T14:37:46.955Z,-0.51
2022-12-14T14:38:46.932Z,-0.52
2022-12-14T14:39:56.933Z,-0.54
2022-12-14T14:41:14.801Z,-0.54
2022-12-14T14:41:46.944Z,-0.55
2022-12-14T14:42:46.882Z,-0.60
2022-12-14T14:43:49.629Z,-0.62
2022-12-14T14:44:46.866Z,-0.65
2022-12-14T14:45:46.910Z,-0.62
2022-12-14T14:46:46.875Z,-0.66
2022-12-14T14:47:46.818Z,-0.68
2022-12-14T14:48:46.798Z,-0.68
2022-12-14T14:49:46.800Z,-0.69
2022-12-14T14:50:46.805Z,-0.72
2022-12-14T14:51:46.819Z,-0.77
2022-12-14T14:52:46.751Z,-0.77
2022-12-14T14:53:46.752Z,-0.80
2022-12-14T14:55:16.218Z,-0.81
2022-12-14T14:55:54.613Z,-0.86
2022-12-14T14:56:46.709Z,-0.89
2022-12-14T14:57:46.701Z,-0.92
2022-12-14T14:58:46.719Z,-0.92
2022-12-14T14:59:51.161Z,-0.99
2022-12-14T15:00:46.658Z,-0.99
2022-12-14T15:01:46.796Z,-1.02
2022-12-14T15:02:46.803Z,-1.02
2022-12-14T15:03:46.734Z,-1.05
2022-12-14T15:04:46.648Z,-1.06
2022-12-14T15:05:46.582Z,-1.07
2022-12-14T15:06:46.565Z,-1.09
2022-12-14T15:07:46.563Z,-1.09
2022-12-14T15:08:46.547Z,-1.10
2022-12-14T15:09:46.699Z,-1.13
2022-12-14T15:10:46.517Z,-1.15
2022-12-14T15:11:46.510Z,-1.17
2022-12-14T15:12:46.511Z,-1.17
2022-12-14T15:13:46.482Z,-1.20
2022-12-14T15:14:48.817Z,-1.21
2022-12-14T15:15:46.447Z,-1.21
2022-12-14T15:16:46.520Z,-1.24
2022-12-14T15:17:46.431Z,-1.30
2022-12-14T15:18:46.411Z,-1.30
2022-12-14T15:19:46.435Z,-1.36
2022-12-14T15:20:46.393Z,-1.41
2022-12-14T15:21:46.428Z,-1.46
2022-12-14T15:22:46.370Z,-1.48
2022-12-14T15:23:49.258Z,-1.51
2022-12-14T15:24:46.365Z,-1.53
2022-12-14T15:25:46.334Z,-1.54
2022-12-14T15:26:46.296Z,-1.57
2022-12-14T15:27:46.350Z,-1.64
2022-12-14T15:28:46.337Z,-1.63
2022-12-14T15:29:46.275Z,-1.67
2022-12-14T15:30:46.301Z,-1.66
2022-12-14T15:31:46.292Z,-1.74
2022-12-14T15:32:47.981Z,-1.81
2022-12-14T15:33:46.274Z,-1.82
2022-12-14T15:34:46.207Z,-1.85
2022-12-14T15:35:46.292Z,-1.92
2022-12-14T15:36:46.354Z,-1.96
2022-12-14T15:37:46.220Z,-2.00
2022-12-14T15:38:46.140Z,-2.05
2022-12-14T15:39:46.201Z,-2.05
2022-12-14T15:40:46.217Z,-2.13
2022-12-14T15:41:46.284Z,-2.16
2022-12-14T15:42:46.133Z,-2.17
2022-12-14T15:43:46.150Z,-2.20
2022-12-14T15:44:46.128Z,-2.24
2022-12-14T15:45:46.146Z,-2.24
2022-12-14T15:46:46.051Z,-2.29
2022-12-14T15:47:49.334Z,-2.32
2022-12-14T15:48:46.059Z,-2.36
2022-12-14T15:49:46.082Z,-2.35
2022-12-14T15:50:45.996Z,-2.38
2022-12-14T15:51:45.981Z,-2.38
2022-12-14T15:52:46.000Z,-2.38
2022-12-14T15:53:50.192Z,-2.40
2022-12-14T15:54:46.035Z,-2.43
2022-12-14T15:55:45.935Z,-2.43
2022-12-14T15:56:45.946Z,-2.47
2022-12-14T15:57:45.903Z,-2.47
2022-12-14T15:58:45.967Z,-2.48
2022-12-14T15:59:45.894Z,-2.51
2022-12-14T16:00:45.914Z,-2.51
2022-12-14T16:01:53.284Z,-2.53
2022-12-14T16:02:45.909Z,-2.53
2022-12-14T16:03:45.892Z,-2.56
2022-12-14T16:04:46.033Z,-2.57
2022-12-14T16:05:45.792Z,-2.58
2022-12-14T16:06:45.782Z,-2.60
2022-12-14T16:07:45.774Z,-2.63
2022-12-14T16:08:45.763Z,-2.68
2022-12-14T16:09:50.043Z,-2.71
2022-12-14T16:10:45.865Z,-2.72
2022-12-14T16:11:45.727Z,-2.75
2022-12-14T16:12:45.950Z,-2.79
2022-12-14T16:13:45.688Z,-2.82
2022-12-14T16:14:45.711Z,-2.86
2022-12-14T16:15:45.694Z,-2.89
2022-12-14T16:16:45.733Z,-2.92
2022-12-14T16:17:45.686Z,-2.97
2022-12-14T16:18:45.640Z,-2.99
2022-12-14T16:19:59.103Z,-3.02
2022-12-14T16:20:45.646Z,-3.05
2022-12-14T16:21:45.619Z,-3.08
2022-12-14T16:22:45.638Z,-3.10
2022-12-14T16:23:46.352Z,-3.11
2022-12-14T16:24:45.616Z,-3.11
2022-12-14T16:25:45.541Z,-3.10
2022-12-14T16:26:45.680Z,-3.14
2022-12-14T16:27:45.563Z,-3.15
2022-12-14T16:28:45.521Z,-3.20
2022-12-14T16:29:48.039Z,-3.23
2022-12-14T16:30:45.519Z,-3.28
2022-12-14T16:31:45.519Z,-3.29
2022-12-14T16:32:50.211Z,-3.31
2022-12-14T16:33:45.461Z,-3.31
2022-12-14T16:34:45.488Z,-3.35
2022-12-14T16:35:45.402Z,-3.38
2022-12-14T16:36:56.294Z,-3.39
2022-12-14T16:37:45.413Z,-3.41
2022-12-14T16:38:45.374Z,-3.39
2022-12-14T16:39:45.350Z,-3.31
2022-12-14T16:40:45.353Z,-3.17
2022-12-14T16:41:45.326Z,-3.13
2022-12-14T16:42:45.507Z,-3.10
2022-12-14T16:43:45.323Z,-3.05
2022-12-14T16:44:45.353Z,-3.08
2022-12-14T16:45:47.101Z,-3.10
2022-12-14T16:46:45.398Z,-3.17
2022-12-14T16:47:45.254Z,-3.22
2022-12-14T16:48:45.245Z,-3.31
2022-12-14T16:49:45.288Z,-3.33
2022-12-14T16:50:56.976Z,-3.36
2022-12-14T16:52:06.374Z,-3.43
2022-12-14T16:52:45.184Z,-3.47
2022-12-14T16:53:45.167Z,-3.50
2022-12-14T16:54:45.222Z,-3.54
2022-12-14T16:55:45.127Z,-3.57
2022-12-14T16:56:45.703Z,-3.62
2022-12-14T16:57:45.867Z,-3.65
2022-12-14T16:58:45.105Z,-3.67
2022-12-14T16:59:45.098Z,-3.68
2022-12-14T17:00:45.083Z,-3.76
2022-12-14T17:01:45.179Z,-3.78
2022-12-14T17:02:45.311Z,-3.80
2022-12-14T17:03:45.162Z,-3.83
2022-12-14T17:04:45.021Z,-3.87
2022-12-14T17:05:45.013Z,-3.91
2022-12-14T17:06:45.008Z,-3.94
2022-12-14T17:07:44.994Z,-3.98
2022-12-14T17:08:44.980Z,-3.99
2022-12-14T17:09:44.960Z,-4.04
2022-12-14T17:10:44.942Z,-4.05
2022-12-14T17:11:44.977Z,-4.07
2022-12-14T17:12:44.939Z,-4.11
2022-12-14T17:13:44.900Z,-4.11
2022-12-14T17:14:49.798Z,-4.15
2022-12-14T17:15:44.877Z,-4.18
2022-12-14T17:16:44.962Z,-4.20
2022-12-14T17:17:44.850Z,-4.20
2022-12-14T17:18:44.859Z,-4.22